createdAt,value
2022-12-23T00:00:30.294Z,8.00
2022-12-23T00:02:58.800Z,8.00
2022-12-23T00:05:37.315Z,8.10
2022-12-23T00:08:08.323Z,8.10
2022-12-23T00:10:40.362Z,8.10
2022-12-23T00:13:26.897Z,8.10
2022-12-23T00:16:04.073Z,8.10
2022-12-23T00:18:32.880Z,8.10
2022-12-23T00:21:08.797Z,8.10
2022-12-23T00:23:43.939Z,8.10
2022-12-23T00:26:17.711Z,8.10
2022-12-23T00:28:49.725Z,8.10
2022-12-23T00:31:20.157Z,8.00
2022-12-23T00:33:52.005Z,8.00
2022-12-23T00:36:28.193Z,8.00
2022-12-23T00:39:18.918Z,8.00
2022-12-23T00:42:05.057Z,8.00
2022-12-23T00:44:34.004Z,8.00
2022-12-23T00:47:02.568Z,8.00
2022-12-23T00:49:42.245Z,8.00
2022-12-23T00:52:16.589Z,7.90
2022-12-23T00:54:45.566Z,7.80
2022-12-23T00:57:14.354Z,7.70
2022-12-23T00:59:43.336Z,7.70
2022-12-23T01:02:30.748Z,7.80
2022-12-23T01:05:16.755Z,7.80
2022-12-23T01:07:46.730Z,7.60
2022-12-23T01:10:15.355Z,7.60
2022-12-23T01:12:44.018Z,7.70
2022-12-23T01:15:15.929Z,7.70
2022-12-23T01:17:44.555Z,7.80
2022-12-23T01:20:16.175Z,7.90
2022-12-23T01:22:46.621Z,7.90
2022-12-23T01:25:15.569Z,7.90
2022-12-23T01:27:44.521Z,7.80
2022-12-23T01:30:14.631Z,7.80
2022-12-23T01:32:43.179Z,7.80
2022-12-23T01:35:12.000Z,7.60
2022-12-23T01:37:41.558Z,7.60
2022-12-23T01:40:15.844Z,7.50
2022-12-23T01:42:47.533Z,7.40
2022-12-23T01:45:23.007Z,7.30
2022-12-23T01:48:00.176Z,7.30
2022-12-23T01:50:33.822Z,7.30
2022-12-23T01:53:08.649Z,7.20
2022-12-23T01:55:46.780Z,7.20
2022-12-23T01:58:20.866Z,7.10
2022-12-23T02:01:07.008Z,7.00
2022-12-23T02:03:45.572Z,6.90
2022-12-23T02:06:39.784Z,6.90
2022-12-23T02:09:19.282Z,6.90
2022-12-23T02:12:37.437Z,6.90
2022-12-23T02:15:52.831Z,6.90
2022-12-23T02:18:56.315Z,7.00
2022-12-23T02:21:43.317Z,7.00
2022-12-23T02:25:09.662Z,7.00
2022-12-23T02:28:07.619Z,7.10
2022-12-23T02:30:49.923Z,7.10
2022-12-23T02:33:51.594Z,7.20
2022-12-23T02:36:39.618Z,7.20
2022-12-23T02:39:17.358Z,7.20
2022-12-23T02:41:57.767Z,7.20
2022-12-23T02:44:35.894Z,7.20
2022-12-23T02:47:14.160Z,7.30
2022-12-23T02:49:49.894Z,7.40
2022-12-23T02:52:23.564Z,7.30
2022-12-23T02:54:57.787Z,7.30
2022-12-23T02:57:33.676Z,7.30
2022-12-23T03:00:04.517Z,7.30
2022-12-23T03:02:37.951Z,7.20
2022-12-23T03:05:08.416Z,7.20
2022-12-23T03:07:44.116Z,7.20
2022-12-23T03:10:30.349Z,7.20
2022-12-23T03:13:20.122Z,7.20
2022-12-23T03:16:13.942Z,7.20
2022-12-23T03:19:04.157Z,7.30
2022-12-23T03:21:43.319Z,7.40
2022-12-23T03:24:28.917Z,7.50
2022-12-23T03:27:09.760Z,7.60
2022-12-23T03:29:46.708Z,7.60
2022-12-23T03:32:22.254Z,7.60
2022-12-23T03:35:00.508Z,7.50
2022-12-23T03:37:35.210Z,7.50
2022-12-23T03:40:11.644Z,7.40
2022-12-23T03:42:43.735Z,7.40
2022-12-23T03:45:39.894Z,7.40
2022-12-23T03:48:20.518Z,7.50
2022-12-23T03:50:58.508Z,7.50
2022-12-23T03:53:34.733Z,7.50
2022-12-23T03:56:11.007Z,7.50
2022-12-23T03:58:46.656Z,7.50
2022-12-23T04:01:26.810Z,7.50
2022-12-23T04:04:03.525Z,7.50
2022-12-23T04:06:43.149Z,7.50
2022-12-23T04:09:19.831Z,7.60
2022-12-23T04:11:50.724Z,7.60
2022-12-23T04:14:20.308Z,7.60
2022-12-23T04:16:54.958Z,7.60
2022-12-23T04:19:26.654Z,7.60
2022-12-23T04:21:58.412Z,7.60
2022-12-23T04:24:29.848Z,7.60
2022-12-23T04:26:59.524Z,7.60
2022-12-23T04:29:27.973Z,7.60
2022-12-23T04:31:58.104Z,7.60
2022-12-23T04:34:29.514Z,7.60
2022-12-23T04:37:00.596Z,7.60
2022-12-23T04:39:29.233Z,7.60
2022-12-23T04:42:04.973Z,7.60
2022-12-23T04:44:33.815Z,7.60
2022-12-23T04:47:02.577Z,7.60
2022-12-23T04:49:32.892Z,7.70
2022-12-23T04:52:05.721Z,7.70
2022-12-23T04:54:43.905Z,7.70
2022-12-23T04:57:14.847Z,7.70
2022-12-23T04:59:43.890Z,7.70
2022-12-23T05:02:13.119Z,7.70
2022-12-23T05:04:44.232Z,7.70
2022-12-23T05:07:16.470Z,7.70
2022-12-23T05:09:45.661Z,7.70
2022-12-23T05:12:14.458Z,7.70
2022-12-23T05:14:43.924Z,7.70
2022-12-23T05:17:12.762Z,7.70
2022-12-23T05:19:42.395Z,7.70
2022-12-23T05:22:11.299Z,7.70
2022-12-23T05:24:41.671Z,7.70
2022-12-23T05:27:11.263Z,7.70
2022-12-23T05:29:40.219Z,7.70
2022-12-23T05:32:09.268Z,7.70
2022-12-23T05:34:37.943Z,7.80
2022-12-23T05:37:07.508Z,7.80
2022-12-23T05:39:36.251Z,7.80
2022-12-23T05:42:07.200Z,7.80
2022-12-23T05:44:36.734Z,7.70
2022-12-23T05:47:07.279Z,7.70
2022-12-23T05:49:36.598Z,7.70
2022-12-23T05:52:05.456Z,7.80
2022-12-23T05:54:34.293Z,7.80
2022-12-23T05:57:03.349Z,7.70
2022-12-23T05:59:33.515Z,7.80
2022-12-23T06:02:02.402Z,7.80
2022-12-23T06:04:31.085Z,7.80
2022-12-23T06:07:03.084Z,7.80
2022-12-23T06:09:34.774Z,7.80
2022-12-23T06:12:03.362Z,7.90
2022-12-23T06:14:33.657Z,7.90
2022-12-23T06:17:02.253Z,7.80
2022-12-23T06:19:31.410Z,7.80
2022-12-23T06:22:00.379Z,7.90
2022-12-23T06:24:29.384Z,7.80
2022-12-23T06:27:01.265Z,7.80
2022-12-23T06:29:29.873Z,7.90
2022-12-23T06:32:05.904Z,7.90
2022-12-23T06:34:37.648Z,7.90
2022-12-23T06:37:09.162Z,7.90
2022-12-23T06:39:38.099Z,7.90
2022-12-23T06:42:06.901Z,7.90
2022-12-23T06:44:35.619Z,7.90
2022-12-23T06:47:06.118Z,7.90
2022-12-23T06:49:35.252Z,7.90
2022-12-23T06:52:04.005Z,7.90
2022-12-23T06:54:32.821Z,7.90
2022-12-23T06:57:01.337Z,7.90
2022-12-23T06:59:30.924Z,7.90
2022-12-23T07:02:00.876Z,7.90
2022-12-23T07:04:30.979Z,7.90
2022-12-23T07:06:59.994Z,7.80
2022-12-23T07:09:29.041Z,7.90
2022-12-23T07:12:04.937Z,7.80
2022-12-23T07:14:33.426Z,7.90
2022-12-23T07:17:02.094Z,7.90
2022-12-23T07:19:32.912Z,7.90
2022-12-23T07:22:01.949Z,7.90
2022-12-23T07:25:00.291Z,7.90
2022-12-23T07:27:28.895Z,7.90
2022-12-23T07:30:05.124Z,7.90
2022-12-23T07:32:33.919Z,7.90
2022-12-23T07:35:04.329Z,7.80
2022-12-23T07:37:33.195Z,7.80
2022-12-23T07:40:08.100Z,7.80
2022-12-23T07:42:46.222Z,7.90
2022-12-23T07:45:18.160Z,7.80
2022-12-23T07:47:56.638Z,7.80
2022-12-23T07:50:37.660Z,7.90
2022-12-23T07:53:26.436Z,7.90
2022-12-23T07:56:01.863Z,8.00
2022-12-23T07:58:30.762Z,8.00
2022-12-23T08:01:09.752Z,8.00
2022-12-23T08:03:39.793Z,8.00
2022-12-23T08:06:13.779Z,7.90
2022-12-23T08:08:45.573Z,7.90
2022-12-23T08:11:16.518Z,7.90
2022-12-23T08:13:48.321Z,7.90
2022-12-23T08:16:17.229Z,8.00
2022-12-23T08:18:46.739Z,8.00
2022-12-23T08:21:22.356Z,8.00
2022-12-23T08:23:52.359Z,8.00
2022-12-23T08:26:23.653Z,8.00
2022-12-23T08:28:57.357Z,8.00
2022-12-23T08:31:32.035Z,8.00
2022-12-23T08:34:04.059Z,8.00
2022-12-23T08:36:41.170Z,7.90
2022-12-23T08:39:21.066Z,8.00
2022-12-23T08:41:51.430Z,7.90
2022-12-23T08:44:21.429Z,7.90
2022-12-23T08:46:50.495Z,7.90
2022-12-23T08:49:20.614Z,7.90
2022-12-23T08:51:51.378Z,7.90
2022-12-23T08:54:20.637Z,7.90
2022-12-23T08:56:49.117Z,7.90
2022-12-23T08:59:20.129Z,7.90
2022-12-23T09:01:49.780Z,7.90
2022-12-23T09:04:18.947Z,7.90
2022-12-23T09:06:48.996Z,7.90
2022-12-23T09:09:18.222Z,7.80
2022-12-23T09:11:47.614Z,7.80
2022-12-23T09:14:18.443Z,7.70
2022-12-23T09:16:47.165Z,7.80
2022-12-23T09:19:15.732Z,7.70
2022-12-23T09:21:47.878Z,7.70
2022-12-23T09:24:17.976Z,7.70
2022-12-23T09:26:46.885Z,7.70
2022-12-23T09:29:15.480Z,7.70
2022-12-23T09:31:47.170Z,7.70
2022-12-23T09:34:16.078Z,7.70
2022-12-23T09:36:46.286Z,7.70
2022-12-23T09:39:18.310Z,7.70
2022-12-23T09:42:06.420Z,7.70
2022-12-23T09:45:09.826Z,7.80
2022-12-23T09:47:42.737Z,7.80
2022-12-23T09:50:27.416Z,7.80
2022-12-23T09:53:07.673Z,7.90
2022-12-23T09:55:51.290Z,7.90
2022-12-23T09:58:45.130Z,7.90
2022-12-23T10:01:31.355Z,7.80
2022-12-23T10:04:37.740Z,7.80
2022-12-23T10:07:37.577Z,7.80
2022-12-23T10:10:18.044Z,7.80
2022-12-23T10:13:02.357Z,7.90
2022-12-23T10:15:42.226Z,7.90
2022-12-23T10:18:23.123Z,7.90
2022-12-23T10:21:01.729Z,8.00
2022-12-23T10:23:37.734Z,8.10
2022-12-23T10:26:25.584Z,8.20
2022-12-23T10:29:21.271Z,8.30
2022-12-23T10:32:34.051Z,8.30
2022-12-23T10:35:23.487Z,8.30
2022-12-23T10:38:04.265Z,8.30
2022-12-23T10:40:51.591Z,8.30
2022-12-23T10:43:33.126Z,8.30
2022-12-23T10:46:30.110Z,8.30
2022-12-23T10:49:13.408Z,8.30
2022-12-23T10:51:51.127Z,8.40
2022-12-23T10:54:27.775Z,8.30
2022-12-23T10:57:00.131Z,8.30
2022-12-23T10:59:33.083Z,8.30
2022-12-23T11:02:22.514Z,8.30
2022-12-23T11:04:56.182Z,8.30
2022-12-23T11:07:46.671Z,8.30
2022-12-23T11:10:22.062Z,8.40
2022-12-23T11:12:56.895Z,8.50
2022-12-23T11:15:33.615Z,8.60
2022-12-23T11:18:22.291Z,8.60
2022-12-23T11:21:07.074Z,8.60
2022-12-23T11:23:37.574Z,8.70
2022-12-23T11:26:10.659Z,8.80
2022-12-23T11:28:49.568Z,8.80
2022-12-23T11:31:28.718Z,8.90
2022-12-23T11:34:02.890Z,9.00
2022-12-23T11:36:37.373Z,8.90
2022-12-23T11:39:16.415Z,8.80
2022-12-23T11:41:49.181Z,8.70
2022-12-23T11:44:30.861Z,8.60
2022-12-23T11:47:32.730Z,8.70
2022-12-23T11:50:26.038Z,8.70
2022-12-23T11:53:01.876Z,8.80
2022-12-23T11:55:39.788Z,8.90
2022-12-23T11:58:22.842Z,8.90
2022-12-23T12:00:59.727Z,8.90
2022-12-23T12:03:33.721Z,8.90
2022-12-23T12:06:07.955Z,8.80
2022-12-23T12:08:40.151Z,8.70
2022-12-23T12:11:16.484Z,8.60
2022-12-23T12:14:03.728Z,8.50
2022-12-23T12:17:01.184Z,8.50
2022-12-23T12:19:37.075Z,8.50
2022-12-23T12:22:16.005Z,8.70
2022-12-23T12:24:51.752Z,8.70
2022-12-23T12:27:33.312Z,8.70
2022-12-23T12:30:08.853Z,8.80
2022-12-23T12:32:50.227Z,8.90
2022-12-23T12:35:28.249Z,9.00
2022-12-23T12:38:14.635Z,9.10
2022-12-23T12:40:49.831Z,9.10
2022-12-23T12:43:28.971Z,9.10
2022-12-23T12:46:28.707Z,9.00
2022-12-23T12:49:07.373Z,9.00
2022-12-23T12:51:53.468Z,8.90
2022-12-23T12:54:36.709Z,8.80
2022-12-23T12:57:05.563Z,8.70
2022-12-23T12:59:38.228Z,8.60
2022-12-23T13:02:55.119Z,8.50
2022-12-23T13:06:01.961Z,8.50
2022-12-23T13:08:52.675Z,8.40
2022-12-23T13:11:30.048Z,8.40
2022-12-23T13:14:14.443Z,8.40
2022-12-23T13:16:51.535Z,8.50
2022-12-23T13:19:34.388Z,8.50
2022-12-23T13:22:11.715Z,8.40
2022-12-23T13:24:58.541Z,8.40
2022-12-23T13:27:35.586Z,8.40
2022-12-23T13:30:12.246Z,8.40
2022-12-23T13:33:10.385Z,8.40
2022-12-23T13:36:14.278Z,8.40
2022-12-23T13:39:12.741Z,8.40
2022-12-23T13:41:46.592Z,8.50
2022-12-23T13:44:19.543Z,8.50
2022-12-23T13:46:59.841Z,8.50
2022-12-23T13:49:49.969Z,8.50
2022-12-23T13:52:30.718Z,8.50
2022-12-23T13:55:20.192Z,8.60
2022-12-23T13:57:59.767Z,8.40
2022-12-23T14:00:34.226Z,8.30
2022-12-23T14:03:20.363Z,8.00
2022-12-23T14:05:51.132Z,7.80
2022-12-23T14:08:43.452Z,7.50
2022-12-23T14:11:23.497Z,7.10
2022-12-23T14:14:00.077Z,6.80
2022-12-23T14:16:50.578Z,6.70
2022-12-23T14:20:05.851Z,6.70
2022-12-23T14:23:07.263Z,6.50
2022-12-23T14:26:16.094Z,6.30
2022-12-23T14:29:15.493Z,6.00
2022-12-23T14:31:58.253Z,5.90
2022-12-23T14:34:32.054Z,5.70
2022-12-23T14:37:36.364Z,5.60
2022-12-23T14:41:00.558Z,5.50
2022-12-23T14:43:59.500Z,5.40
2022-12-23T14:47:01.637Z,5.30
2022-12-23T14:49:44.138Z,5.10
2022-12-23T14:52:51.450Z,4.90
2022-12-23T14:55:49.824Z,4.80
2022-12-23T14:59:10.334Z,4.60
2022-12-23T15:01:45.308Z,4.50
2022-12-23T15:04:21.894Z,4.30
2022-12-23T15:06:57.635Z,4.20
2022-12-23T15:09:30.061Z,4.10
2022-12-23T15:12:06.307Z,3.90
2022-12-23T15:14:43.590Z,3.80
2022-12-23T15:17:29.971Z,3.80
2022-12-23T15:20:15.587Z,3.80
2022-12-23T15:22:46.854Z,3.80
2022-12-23T15:25:24.740Z,3.70
2022-12-23T15:28:01.179Z,3.70
2022-12-23T15:30:35.108Z,3.70
2022-12-23T15:33:35.062Z,3.50
2022-12-23T15:35:59.353Z,3.30
2022-12-23T15:38:37.381Z,3.20
2022-12-23T15:41:14.975Z,2.90
2022-12-23T15:43:45.918Z,2.80
2022-12-23T15:46:25.327Z,2.60
2022-12-23T15:49:01.859Z,2.50
2022-12-23T15:52:05.821Z,2.50
2022-12-23T15:54:32.828Z,2.30
2022-12-23T15:57:05.042Z,2.30
2022-12-23T15:59:38.913Z,2.30
2022-12-23T16:02:58.388Z,2.40
2022-12-23T16:05:08.951Z,2.30
2022-12-23T16:07:42.012Z,2.30
2022-12-23T16:10:17.305Z,2.30
2022-12-23T16:12:46.267Z,2.20
2022-12-23T16:15:27.116Z,2.10
2022-12-23T16:18:13.818Z,2.40
2022-12-23T16:20:46.866Z,2.50
2022-12-23T16:23:19.140Z,2.60
2022-12-23T16:25:51.013Z,2.50
2022-12-23T16:28:24.638Z,2.50
2022-12-23T16:30:59.554Z,2.30
2022-12-23T16:33:40.363Z,2.30
2022-12-23T16:36:23.660Z,2.20
2022-12-23T16:39:00.011Z,2.00
2022-12-23T16:41:28.638Z,2.00
2022-12-23T16:43:59.445Z,1.90
2022-12-23T16:46:38.690Z,1.70
2022-12-23T16:49:11.105Z,1.60
2022-12-23T16:51:41.780Z,1.60
2022-12-23T16:54:17.565Z,1.50
2022-12-23T16:56:47.707Z,1.50
2022-12-23T16:59:17.167Z,1.40
2022-12-23T17:01:49.330Z,1.50
2022-12-23T17:04:18.425Z,1.50
2022-12-23T17:06:47.750Z,1.40
2022-12-23T17:09:17.744Z,1.40
2022-12-23T17:11:50.189Z,1.30
2022-12-23T17:14:21.898Z,1.40
2022-12-23T17:16:52.612Z,1.50
2022-12-23T17:19:28.533Z,1.40
2022-12-23T17:22:04.532Z,1.40
2022-12-23T17:24:34.635Z,1.50
2022-12-23T17:27:03.219Z,1.70
2022-12-23T17:29:31.763Z,1.70
2022-12-23T17:32:00.977Z,1.70
2022-12-23T17:34:29.586Z,1.60
2022-12-23T17:37:02.183Z,1.50
2022-12-23T17:39:30.859Z,1.50
2022-12-23T17:42:04.306Z,1.50
2022-12-23T17:44:32.894Z,1.60
2022-12-23T17:47:02.347Z,1.40
2022-12-23T17:49:30.940Z,1.30
2022-12-23T17:52:02.363Z,1.30
2022-12-23T17:54:30.904Z,1.20
2022-12-23T17:57:04.110Z,1.10
2022-12-23T17:59:32.834Z,1.10
2022-12-23T18:02:01.660Z,1.10
2022-12-23T18:04:30.227Z,1.10
2022-12-23T18:06:59.254Z,1.10
2022-12-23T18:09:30.360Z,1.10
2022-12-23T18:12:01.801Z,1.20
2022-12-23T18:14:32.736Z,1.20
2022-12-23T18:17:04.469Z,1.30
2022-12-23T18:19:33.421Z,1.30
2022-12-23T18:22:02.914Z,1.30
2022-12-23T18:24:31.450Z,1.30
2022-12-23T18:27:03.396Z,1.40
2022-12-23T18:29:33.332Z,1.40
2022-12-23T18:32:02.721Z,1.30
2022-12-23T18:34:31.277Z,1.40
2022-12-23T18:37:00.355Z,1.40
2022-12-23T18:39:29.059Z,1.40
2022-12-23T18:41:58.202Z,1.30
2022-12-23T18:44:29.498Z,1.10
2022-12-23T18:46:59.760Z,1.10
2022-12-23T18:49:32.115Z,1.10
2022-12-23T18:52:00.668Z,1.00
2022-12-23T18:54:29.876Z,1.00
2022-12-23T18:57:01.491Z,1.00
2022-12-23T18:59:31.662Z,1.10
2022-12-23T19:02:05.242Z,1.30
2022-12-23T19:04:34.228Z,1.40
2022-12-23T19:07:02.832Z,1.60
2022-12-23T19:09:31.630Z,1.70
2022-12-23T19:12:00.251Z,1.80
2022-12-23T19:14:28.935Z,1.80
2022-12-23T19:17:01.992Z,1.70
2022-12-23T19:19:32.065Z,1.80
2022-12-23T19:22:00.889Z,1.80
2022-12-23T19:24:29.748Z,1.90
2022-12-23T19:26:58.900Z,1.90
2022-12-23T19:29:30.907Z,2.10
2022-12-23T19:31:59.703Z,2.10
2022-12-23T19:34:28.369Z,2.10
2022-12-23T19:36:58.759Z,2.10
2022-12-23T19:39:27.991Z,2.10
2022-12-23T19:41:56.980Z,2.10
2022-12-23T19:44:26.098Z,2.20
2022-12-23T19:46:55.170Z,2.40
2022-12-23T19:49:23.876Z,2.50
2022-12-23T19:51:52.706Z,2.60
2022-12-23T19:54:22.948Z,2.70
2022-12-23T19:56:52.715Z,2.80
2022-12-23T19:59:22.040Z,2.90
2022-12-23T20:01:50.785Z,2.90
2022-12-23T20:04:19.954Z,3.00
2022-12-23T20:06:48.592Z,3.20
2022-12-23T20:09:17.398Z,3.40
2022-12-23T20:11:49.885Z,3.50
2022-12-23T20:14:21.877Z,3.50
2022-12-23T20:16:50.667Z,3.50
2022-12-23T20:19:23.116Z,3.60
2022-12-23T20:21:52.250Z,3.60
2022-12-23T20:24:20.933Z,3.70
2022-12-23T20:26:51.300Z,3.70
2022-12-23T20:29:19.853Z,3.70
2022-12-23T20:31:48.494Z,3.80
2022-12-23T20:34:19.286Z,3.80
2022-12-23T20:36:48.062Z,3.90
2022-12-23T20:39:16.641Z,3.90
2022-12-23T20:41:45.587Z,3.80
2022-12-23T20:47:04.439Z,3.90
2022-12-23T20:49:33.195Z,3.90
2022-12-23T20:52:02.547Z,3.80
2022-12-23T20:54:33.521Z,3.70
2022-12-23T20:57:05.096Z,3.70
2022-12-23T20:59:35.211Z,3.60
2022-12-23T21:02:03.823Z,3.60
2022-12-23T21:04:32.433Z,3.50
2022-12-23T21:07:01.195Z,3.40
2022-12-23T21:09:30.347Z,3.30
2022-12-23T21:11:59.149Z,3.30
2022-12-23T21:14:27.858Z,3.30
2022-12-23T21:17:00.339Z,3.30
2022-12-23T21:19:29.295Z,3.30
2022-12-23T21:22:01.555Z,3.30
2022-12-23T21:24:30.403Z,3.30
2022-12-23T21:27:02.440Z,3.30
2022-12-23T21:29:30.934Z,3.30
2022-12-23T21:32:01.219Z,3.20
2022-12-23T21:34:30.071Z,3.20
2022-12-23T21:36:59.310Z,3.20
2022-12-23T21:39:28.590Z,3.10
2022-12-23T21:41:57.780Z,3.20
2022-12-23T21:44:27.137Z,3.10
2022-12-23T21:46:58.993Z,3.10
2022-12-23T21:49:29.417Z,3.00
2022-12-23T21:51:58.630Z,2.90
2022-12-23T21:54:27.242Z,2.90
2022-12-23T21:56:57.840Z,2.80
2022-12-23T21:59:32.832Z,2.80
2022-12-23T22:02:03.524Z,2.80
2022-12-23T22:04:33.440Z,2.80
2022-12-23T22:07:01.934Z,2.80
2022-12-23T22:09:30.813Z,2.70
2022-12-23T22:12:04.128Z,2.60
2022-12-23T22:14:32.762Z,2.60
2022-12-23T22:17:01.408Z,2.60
2022-12-23T22:19:30.334Z,2.50
2022-12-23T22:22:00.324Z,2.40
2022-12-23T22:24:28.815Z,2.30
2022-12-23T22:26:59.199Z,2.20
2022-12-23T22:29:28.516Z,2.20
2022-12-23T22:32:00.080Z,2.30
2022-12-23T22:34:29.094Z,2.40
2022-12-23T22:36:59.383Z,2.50
2022-12-23T22:39:28.245Z,2.50
2022-12-23T22:41:59.469Z,2.50
2022-12-23T22:44:30.649Z,2.60
2022-12-23T22:46:59.789Z,2.70
2022-12-23T22:49:31.499Z,2.70
2022-12-23T22:52:01.699Z,2.60
2022-12-23T22:54:30.371Z,2.60
2022-12-23T22:56:59.105Z,2.70
2022-12-23T22:59:28.632Z,2.70
2022-12-23T23:02:00.600Z,2.70
2022-12-23T23:04:29.279Z,2.70
2022-12-23T23:07:02.497Z,2.70
2022-12-23T23:09:31.118Z,2.70
2022-12-23T23:11:59.998Z,2.70
2022-12-23T23:14:48.759Z,2.70
2022-12-23T23:17:17.364Z,2.80
2022-12-23T23:19:45.848Z,2.70
2022-12-23T23:22:15.878Z,2.70
2022-12-23T23:24:44.544Z,2.70
2022-12-23T23:27:14.199Z,2.70
2022-12-23T23:29:43.186Z,2.70
2022-12-23T23:32:12.854Z,2.60
2022-12-23T23:34:42.324Z,2.50
2022-12-23T23:37:11.031Z,2.50
2022-12-23T23:39:40.929Z,2.50
2022-12-23T23:42:12.598Z,2.60
2022-12-23T23:44:41.283Z,2.70
2022-12-23T23:47:09.926Z,2.70
2022-12-23T23:49:38.669Z,2.70
2022-12-23T23:52:07.325Z,2.70
2022-12-23T23:54:36.364Z,2.60
2022-12-23T23:57:06.438Z,2.50
2022-12-23T23:59:35.138Z,2.50
